sensor_id;sensor_type;location;lat;lon;timestamp;temperature;humidity
17307;DHT22;8771;48.048;7.682;2023-05-10T00:00:06;17.00;75.80
17307;DHT22;8771;48.048;7.682;2023-05-10T00:05:09;17.00;75.80
17307;DHT22;8771;48.048;7.682;2023-05-10T00:10:11;17.00;75.70
17307;DHT22;8771;48.048;7.682;2023-05-10T00:15:15;17.00;75.70
17307;DHT22;8771;48.048;7.682;2023-05-10T00:20:17;16.90;75.60
17307;DHT22;8771;48.048;7.682;2023-05-10T00:25:18;16.90;75.60
17307;DHT22;8771;48.048;7.682;2023-05-10T00:30:23;16.90;75.70
17307;DHT22;8771;48.048;7.682;2023-05-10T00:35:25;16.80;75.70
17307;DHT22;8771;48.048;7.682;2023-05-10T00:40:28;16.80;75.70
17307;DHT22;8771;48.048;7.682;2023-05-10T00:45:32;16.80;75.70
17307;DHT22;8771;48.048;7.682;2023-05-10T00:50:35;16.80;75.80
17307;DHT22;8771;48.048;7.682;2023-05-10T00:55:37;16.80;75.70
17307;DHT22;8771;48.048;7.682;2023-05-10T01:00:41;16.80;76.50
17307;DHT22;8771;48.048;7.682;2023-05-10T01:05:44;16.80;75.80
17307;DHT22;8771;48.048;7.682;2023-05-10T01:10:45;16.80;75.80
17307;DHT22;8771;48.048;7.682;2023-05-10T01:15:51;16.70;75.70
17307;DHT22;8771;48.048;7.682;2023-05-10T01:21:01;16.70;75.80
17307;DHT22;8771;48.048;7.682;2023-05-10T01:26:36;16.70;75.80
17307;DHT22;8771;48.048;7.682;2023-05-10T01:32:00;16.70;75.80
17307;DHT22;8771;48.048;7.682;2023-05-10T01:37:12;16.70;75.80
17307;DHT22;8771;48.048;7.682;2023-05-10T01:42:22;16.60;75.80
17307;DHT22;8771;48.048;7.682;2023-05-10T01:47:30;16.60;75.80
17307;DHT22;8771;48.048;7.682;2023-05-10T01:52:38;16.60;75.90
17307;DHT22;8771;48.048;7.682;2023-05-10T01:57:44;16.50;76.00
17307;DHT22;8771;48.048;7.682;2023-05-10T02:02:49;16.40;76.10
17307;DHT22;8771;48.048;7.682;2023-05-10T02:07:52;16.40;76.10
17307;DHT22;8771;48.048;7.682;2023-05-10T02:12:55;16.40;76.20
17307;DHT22;8771;48.048;7.682;2023-05-10T02:18:01;16.40;76.20
17307;DHT22;8771;48.048;7.682;2023-05-10T02:23:04;16.40;76.20
17307;DHT22;8771;48.048;7.682;2023-05-10T02:28:07;16.40;76.10
17307;DHT22;8771;48.048;7.682;2023-05-10T02:33:11;16.40;76.10
17307;DHT22;8771;48.048;7.682;2023-05-10T02:38:14;16.40;76.10
17307;DHT22;8771;48.048;7.682;2023-05-10T02:43:18;16.40;76.20
17307;DHT22;8771;48.048;7.682;2023-05-10T02:48:23;16.40;76.20
17307;DHT22;8771;48.048;7.682;2023-05-10T02:53:32;16.40;76.20
17307;DHT22;8771;48.048;7.682;2023-05-10T02:58:35;16.40;76.20
17307;DHT22;8771;48.048;7.682;2023-05-10T03:03:38;16.40;76.10
17307;DHT22;8771;48.048;7.682;2023-05-10T03:08:40;16.40;76.10
17307;DHT22;8771;48.048;7.682;2023-05-10T03:13:48;16.40;76.20
17307;DHT22;8771;48.048;7.682;2023-05-10T03:19:06;16.40;76.20
17307;DHT22;8771;48.048;7.682;2023-05-10T03:24:13;16.30;76.10
17307;DHT22;8771;48.048;7.682;2023-05-10T03:29:16;16.40;76.10
17307;DHT22;8771;48.048;7.682;2023-05-10T03:34:24;16.30;76.10
17307;DHT22;8771;48.048;7.682;2023-05-10T03:39:26;16.30;76.20
17307;DHT22;8771;48.048;7.682;2023-05-10T03:44:28;16.30;76.20
17307;DHT22;8771;48.048;7.682;2023-05-10T03:49:31;16.20;76.10
17307;DHT22;8771;48.048;7.682;2023-05-10T03:54:33;16.20;76.20
17307;DHT22;8771;48.048;7.682;2023-05-10T03:59:35;16.20;76.40
17307;DHT22;8771;48.048;7.682;2023-05-10T04:04:39;16.10;76.40
17307;DHT22;8771;48.048;7.682;2023-05-10T04:09:40;16.10;76.50
17307;DHT22;8771;48.048;7.682;2023-05-10T04:14:42;16.10;76.50
17307;DHT22;8771;48.048;7.682;2023-05-10T04:19:46;16.10;76.50
17307;DHT22;8771;48.048;7.682;2023-05-10T04:24:47;16.10;76.40
17307;DHT22;8771;48.048;7.682;2023-05-10T04:29:49;16.10;76.50
17307;DHT22;8771;48.048;7.682;2023-05-10T04:34:53;16.00;76.50
17307;DHT22;8771;48.048;7.682;2023-05-10T04:39:55;16.00;76.50
17307;DHT22;8771;48.048;7.682;2023-05-10T04:44:56;16.00;76.50
17307;DHT22;8771;48.048;7.682;2023-05-10T04:50:00;16.00;76.40
17307;DHT22;8771;48.048;7.682;2023-05-10T04:55:02;16.00;76.40
17307;DHT22;8771;48.048;7.682;2023-05-10T05:00:05;16.00;76.50
17307;DHT22;8771;48.048;7.682;2023-05-10T05:05:09;16.00;76.50
17307;DHT22;8771;48.048;7.682;2023-05-10T05:10:11;16.00;76.40
17307;DHT22;8771;48.048;7.682;2023-05-10T05:15:13;16.00;76.50
17307;DHT22;8771;48.048;7.682;2023-05-10T05:20:18;16.00;76.40
17307;DHT22;8771;48.048;7.682;2023-05-10T05:25:20;16.00;76.60
17307;DHT22;8771;48.048;7.682;2023-05-10T05:30:22;15.90;76.50
17307;DHT22;8771;48.048;7.682;2023-05-10T05:35:26;16.00;76.60
17307;DHT22;8771;48.048;7.682;2023-05-10T05:40:27;15.90;76.50
17307;DHT22;8771;48.048;7.682;2023-05-10T05:45:29;15.90;76.50
17307;DHT22;8771;48.048;7.682;2023-05-10T05:50:33;15.90;76.60
17307;DHT22;8771;48.048;7.682;2023-05-10T05:55:34;16.00;76.50
17307;DHT22;8771;48.048;7.682;2023-05-10T06:00:36;16.00;76.40
17307;DHT22;8771;48.048;7.682;2023-05-10T06:05:39;16.10;76.20
17307;DHT22;8771;48.048;7.682;2023-05-10T06:10:41;16.20;76.10
17307;DHT22;8771;48.048;7.682;2023-05-10T06:15:43;16.30;76.10
17307;DHT22;8771;48.048;7.682;2023-05-10T06:20:47;16.30;76.00
17307;DHT22;8771;48.048;7.682;2023-05-10T06:25:49;16.30;76.80
17307;DHT22;8771;48.048;7.682;2023-05-10T06:30:51;16.30;76.00
17307;DHT22;8771;48.048;7.682;2023-05-10T06:35:54;16.30;75.90
17307;DHT22;8771;48.048;7.682;2023-05-10T06:40:56;16.40;76.00
17307;DHT22;8771;48.048;7.682;2023-05-10T06:45:58;16.50;76.00
17307;DHT22;8771;48.048;7.682;2023-05-10T06:51:01;16.60;75.90
17307;DHT22;8771;48.048;7.682;2023-05-10T06:56:03;16.60;75.80
17307;DHT22;8771;48.048;7.682;2023-05-10T07:01:05;16.70;75.80
17307;DHT22;8771;48.048;7.682;2023-05-10T07:06:09;16.90;75.70
17307;DHT22;8771;48.048;7.682;2023-05-10T07:11:11;17.10;75.40
17307;DHT22;8771;48.048;7.682;2023-05-10T07:16:13;17.20;75.20
17307;DHT22;8771;48.048;7.682;2023-05-10T07:21:17;17.50;75.00
17307;DHT22;8771;48.048;7.682;2023-05-10T07:26:18;17.70;74.70
17307;DHT22;8771;48.048;7.682;2023-05-10T07:31:21;18.10;74.40
17307;DHT22;8771;48.048;7.682;2023-05-10T07:36:24;18.40;74.00
17307;DHT22;8771;48.048;7.682;2023-05-10T07:41:26;18.70;73.70
17307;DHT22;8771;48.048;7.682;2023-05-10T07:46:28;19.00;73.40
17307;DHT22;8771;48.048;7.682;2023-05-10T07:51:32;19.20;73.30
17307;DHT22;8771;48.048;7.682;2023-05-10T07:56:34;19.60;73.10
17307;DHT22;8771;48.048;7.682;2023-05-10T08:01:36;19.80;72.90
17307;DHT22;8771;48.048;7.682;2023-05-10T08:06:39;19.90;72.70
17307;DHT22;8771;48.048;7.682;2023-05-10T08:11:42;20.10;72.70
17307;DHT22;8771;48.048;7.682;2023-05-10T08:16:44;20.10;72.70
17307;DHT22;8771;48.048;7.682;2023-05-10T08:21:47;19.90;72.90
17307;DHT22;8771;48.048;7.682;2023-05-10T08:26:49;19.80;73.40
17307;DHT22;8771;48.048;7.682;2023-05-10T08:31:51;19.60;74.50
17307;DHT22;8771;48.048;7.682;2023-05-10T08:36:54;19.70;73.90
17307;DHT22;8771;48.048;7.682;2023-05-10T08:42:02;19.60;74.00
17307;DHT22;8771;48.048;7.682;2023-05-10T08:47:05;19.30;74.20
17307;DHT22;8771;48.048;7.682;2023-05-10T08:52:11;19.00;74.80
17307;DHT22;8771;48.048;7.682;2023-05-10T08:57:14;18.80;75.10
17307;DHT22;8771;48.048;7.682;2023-05-10T09:02:17;18.70;75.10
17307;DHT22;8771;48.048;7.682;2023-05-10T09:07:21;18.60;75.20
17307;DHT22;8771;48.048;7.682;2023-05-10T09:12:23;18.60;75.20
17307;DHT22;8771;48.048;7.682;2023-05-10T09:17:25;18.60;75.00
17307;DHT22;8771;48.048;7.682;2023-05-10T09:22:30;18.70;74.60
17307;DHT22;8771;48.048;7.682;2023-05-10T09:27:32;18.80;74.30
17307;DHT22;8771;48.048;7.682;2023-05-10T09:32:38;18.90;74.00
17307;DHT22;8771;48.048;7.682;2023-05-10T09:37:43;19.00;73.80
17307;DHT22;8771;48.048;7.682;2023-05-10T09:42:51;19.10;73.40
17307;DHT22;8771;48.048;7.682;2023-05-10T09:47:54;19.30;73.20
17307;DHT22;8771;48.048;7.682;2023-05-10T09:52:58;19.60;72.90
17307;DHT22;8771;48.048;7.682;2023-05-10T09:58:01;19.60;72.60
17307;DHT22;8771;48.048;7.682;2023-05-10T10:03:04;19.80;72.50
17307;DHT22;8771;48.048;7.682;2023-05-10T10:08:07;20.10;72.30
17307;DHT22;8771;48.048;7.682;2023-05-10T10:13:09;20.20;72.70
17307;DHT22;8771;48.048;7.682;2023-05-10T10:18:13;20.40;71.90
17307;DHT22;8771;48.048;7.682;2023-05-10T10:23:17;20.80;71.40
17307;DHT22;8771;48.048;7.682;2023-05-10T10:28:26;21.10;71.00
17307;DHT22;8771;48.048;7.682;2023-05-10T10:33:43;21.40;70.70
17307;DHT22;8771;48.048;7.682;2023-05-10T10:39:00;21.80;70.30
17307;DHT22;8771;48.048;7.682;2023-05-10T10:44:22;21.90;70.00
17307;DHT22;8771;48.048;7.682;2023-05-10T10:49:24;22.00;70.10
17307;DHT22;8771;48.048;7.682;2023-05-10T10:54:28;22.20;70.00
17307;DHT22;8771;48.048;7.682;2023-05-10T10:59:30;22.40;69.90
17307;DHT22;8771;48.048;7.682;2023-05-10T11:04:41;22.80;69.40
17307;DHT22;8771;48.048;7.682;2023-05-10T11:09:46;23.10;69.10
17307;DHT22;8771;48.048;7.682;2023-05-10T11:14:50;23.30;68.90
17307;DHT22;8771;48.048;7.682;2023-05-10T11:20:07;23.40;68.80
17307;DHT22;8771;48.048;7.682;2023-05-10T11:25:11;23.50;69.00
17307;DHT22;8771;48.048;7.682;2023-05-10T11:30:14;23.60;69.00
17307;DHT22;8771;48.048;7.682;2023-05-10T11:35:16;23.70;69.00
17307;DHT22;8771;48.048;7.682;2023-05-10T11:40:21;23.60;69.30
17307;DHT22;8771;48.048;7.682;2023-05-10T11:45:25;23.40;69.50
17307;DHT22;8771;48.048;7.682;2023-05-10T11:50:28;23.30;69.80
17307;DHT22;8771;48.048;7.682;2023-05-10T11:55:33;23.10;70.00
17307;DHT22;8771;48.048;7.682;2023-05-10T12:00:35;22.90;70.30
17307;DHT22;8771;48.048;7.682;2023-05-10T12:05:37;22.70;70.60
17307;DHT22;8771;48.048;7.682;2023-05-10T12:10:43;22.50;70.90
17307;DHT22;8771;48.048;7.682;2023-05-10T12:15:45;22.50;70.90
17307;DHT22;8771;48.048;7.682;2023-05-10T12:20:47;22.40;70.80
17307;DHT22;8771;48.048;7.682;2023-05-10T12:25:50;22.30;70.60
17307;DHT22;8771;48.048;7.682;2023-05-10T12:30:54;22.20;70.70
17307;DHT22;8771;48.048;7.682;2023-05-10T12:35:59;22.20;70.50
17307;DHT22;8771;48.048;7.682;2023-05-10T12:41:04;22.30;70.30
17307;DHT22;8771;48.048;7.682;2023-05-10T12:46:07;22.30;70.20
17307;DHT22;8771;48.048;7.682;2023-05-10T12:51:10;22.30;70.20
17307;DHT22;8771;48.048;7.682;2023-05-10T12:56:14;22.30;69.90
17307;DHT22;8771;48.048;7.682;2023-05-10T13:01:16;22.30;69.70
17307;DHT22;8771;48.048;7.682;2023-05-10T13:06:18;22.30;69.90
17307;DHT22;8771;48.048;7.682;2023-05-10T13:11:21;22.20;70.00
17307;DHT22;8771;48.048;7.682;2023-05-10T13:16:23;22.00;70.30
17307;DHT22;8771;48.048;7.682;2023-05-10T13:21:25;21.80;70.50
17307;DHT22;8771;48.048;7.682;2023-05-10T13:26:28;21.60;70.70
17307;DHT22;8771;48.048;7.682;2023-05-10T13:31:30;21.60;70.80
17307;DHT22;8771;48.048;7.682;2023-05-10T13:36:32;21.70;70.70
17307;DHT22;8771;48.048;7.682;2023-05-10T13:41:35;21.80;70.30
17307;DHT22;8771;48.048;7.682;2023-05-10T13:46:37;21.90;70.10
17307;DHT22;8771;48.048;7.682;2023-05-10T13:51:39;22.00;70.00
17307;DHT22;8771;48.048;7.682;2023-05-10T13:56:43;22.10;69.50
17307;DHT22;8771;48.048;7.682;2023-05-10T14:01:45;22.30;69.30
17307;DHT22;8771;48.048;7.682;2023-05-10T14:06:47;22.40;69.10
17307;DHT22;8771;48.048;7.682;2023-05-10T14:11:50;22.50;68.80
17307;DHT22;8771;48.048;7.682;2023-05-10T14:16:52;22.70;68.70
17307;DHT22;8771;48.048;7.682;2023-05-10T14:21:54;22.80;68.50
17307;DHT22;8771;48.048;7.682;2023-05-10T14:26:57;22.80;68.50
17307;DHT22;8771;48.048;7.682;2023-05-10T14:31:59;22.90;68.40
17307;DHT22;8771;48.048;7.682;2023-05-10T14:37:01;23.00;68.20
17307;DHT22;8771;48.048;7.682;2023-05-10T14:42:04;23.20;68.00
17307;DHT22;8771;48.048;7.682;2023-05-10T14:47:06;23.20;68.00
17307;DHT22;8771;48.048;7.682;2023-05-10T14:52:08;23.20;68.10
17307;DHT22;8771;48.048;7.682;2023-05-10T14:57:12;23.20;68.10
17307;DHT22;8771;48.048;7.682;2023-05-10T15:02:14;23.10;68.00
17307;DHT22;8771;48.048;7.682;2023-05-10T15:07:16;23.10;68.20
17307;DHT22;8771;48.048;7.682;2023-05-10T15:12:20;23.20;68.00
17307;DHT22;8771;48.048;7.682;2023-05-10T15:17:22;23.20;68.00
17307;DHT22;8771;48.048;7.682;2023-05-10T15:22:24;23.20;67.80
17307;DHT22;8771;48.048;7.682;2023-05-10T15:27:27;23.20;68.00
17307;DHT22;8771;48.048;7.682;2023-05-10T15:32:29;23.10;68.00
17307;DHT22;8771;48.048;7.682;2023-05-10T15:37:31;23.00;68.20
17307;DHT22;8771;48.048;7.682;2023-05-10T15:42:34;22.80;68.40
17307;DHT22;8771;48.048;7.682;2023-05-10T15:47:36;22.60;69.40
17307;DHT22;8771;48.048;7.682;2023-05-10T15:52:39;22.40;68.80
17307;DHT22;8771;48.048;7.682;2023-05-10T15:57:43;22.20;69.90
17307;DHT22;8771;48.048;7.682;2023-05-10T16:02:45;22.10;69.30
17307;DHT22;8771;48.048;7.682;2023-05-10T16:07:47;21.60;69.60
17307;DHT22;8771;48.048;7.682;2023-05-10T16:12:51;21.10;70.00
17307;DHT22;8771;48.048;7.682;2023-05-10T16:17:53;20.80;70.80
17307;DHT22;8771;48.048;7.682;2023-05-10T16:22:56;20.50;71.00
17307;DHT22;8771;48.048;7.682;2023-05-10T16:28:00;20.20;71.20
17307;DHT22;8771;48.048;7.682;2023-05-10T16:33:03;20.00;71.40
17307;DHT22;8771;48.048;7.682;2023-05-10T16:38:05;20.00;71.50
17307;DHT22;8771;48.048;7.682;2023-05-10T16:43:08;20.00;71.30
17307;DHT22;8771;48.048;7.682;2023-05-10T16:48:10;20.00;70.90
17307;DHT22;8771;48.048;7.682;2023-05-10T16:53:12;20.10;70.50
17307;DHT22;8771;48.048;7.682;2023-05-10T16:58:15;20.10;70.30
17307;DHT22;8771;48.048;7.682;2023-05-10T17:03:17;20.00;70.30
17307;DHT22;8771;48.048;7.682;2023-05-10T17:08:20;20.00;70.30
17307;DHT22;8771;48.048;7.682;2023-05-10T17:13:23;20.00;70.20
17307;DHT22;8771;48.048;7.682;2023-05-10T17:18:25;19.90;70.30
17307;DHT22;8771;48.048;7.682;2023-05-10T17:23:27;19.80;70.40
17307;DHT22;8771;48.048;7.682;2023-05-10T17:28:31;19.70;70.50
17307;DHT22;8771;48.048;7.682;2023-05-10T17:33:33;19.60;70.60
17307;DHT22;8771;48.048;7.682;2023-05-10T17:38:35;19.60;70.60
17307;DHT22;8771;48.048;7.682;2023-05-10T17:43:38;19.60;70.60
17307;DHT22;8771;48.048;7.682;2023-05-10T17:48:41;19.60;70.50
17307;DHT22;8771;48.048;7.682;2023-05-10T17:53:43;19.50;70.40
17307;DHT22;8771;48.048;7.682;2023-05-10T17:58:46;19.40;70.40
17307;DHT22;8771;48.048;7.682;2023-05-10T18:03:48;19.30;70.50
17307;DHT22;8771;48.048;7.682;2023-05-10T18:08:51;19.10;70.60
17307;DHT22;8771;48.048;7.682;2023-05-10T18:13:54;19.00;70.70
17307;DHT22;8771;48.048;7.682;2023-05-10T18:18:57;18.80;70.80
17307;DHT22;8771;48.048;7.682;2023-05-10T18:23:58;18.70;71.10
17307;DHT22;8771;48.048;7.682;2023-05-10T18:29:02;18.50;71.10
17307;DHT22;8771;48.048;7.682;2023-05-10T18:34:04;18.50;71.20
17307;DHT22;8771;48.048;7.682;2023-05-10T18:39:06;18.30;71.20
17307;DHT22;8771;48.048;7.682;2023-05-10T18:44:09;18.20;71.30
17307;DHT22;8771;48.048;7.682;2023-05-10T18:49:11;18.10;71.30
17307;DHT22;8771;48.048;7.682;2023-05-10T18:54:13;18.00;71.30
17307;DHT22;8771;48.048;7.682;2023-05-10T18:59:17;17.90;71.40
17307;DHT22;8771;48.048;7.682;2023-05-10T19:04:19;17.90;71.50
17307;DHT22;8771;48.048;7.682;2023-05-10T19:09:21;17.80;71.40
17307;DHT22;8771;48.048;7.682;2023-05-10T19:14:24;17.70;71.40
17307;DHT22;8771;48.048;7.682;2023-05-10T19:19:26;17.60;71.50
17307;DHT22;8771;48.048;7.682;2023-05-10T19:24:28;17.50;71.60
17307;DHT22;8771;48.048;7.682;2023-05-10T19:29:31;17.50;71.60
17307;DHT22;8771;48.048;7.682;2023-05-10T19:34:33;17.40;71.60
17307;DHT22;8771;48.048;7.682;2023-05-10T19:39:35;17.30;71.60
17307;DHT22;8771;48.048;7.682;2023-05-10T19:44:38;17.20;71.60
17307;DHT22;8771;48.048;7.682;2023-05-10T19:49:40;17.20;71.60
17307;DHT22;8771;48.048;7.682;2023-05-10T19:54:42;17.10;71.60
17307;DHT22;8771;48.048;7.682;2023-05-10T19:59:45;17.10;71.70
17307;DHT22;8771;48.048;7.682;2023-05-10T20:04:47;17.00;71.70
17307;DHT22;8771;48.048;7.682;2023-05-10T20:09:49;17.00;71.60
17307;DHT22;8771;48.048;7.682;2023-05-10T20:14:53;17.00;71.60
17307;DHT22;8771;48.048;7.682;2023-05-10T20:19:54;16.90;71.60
17307;DHT22;8771;48.048;7.682;2023-05-10T20:24:56;16.90;71.60
17307;DHT22;8771;48.048;7.682;2023-05-10T20:30:00;16.80;71.60
17307;DHT22;8771;48.048;7.682;2023-05-10T20:35:02;16.80;71.70
17307;DHT22;8771;48.048;7.682;2023-05-10T20:40:06;16.70;71.80
17307;DHT22;8771;48.048;7.682;2023-05-10T20:45:10;16.60;71.80
17307;DHT22;8771;48.048;7.682;2023-05-10T20:50:12;16.60;71.80
17307;DHT22;8771;48.048;7.682;2023-05-10T20:55:14;16.60;71.70
17307;DHT22;8771;48.048;7.682;2023-05-10T21:00:18;16.60;71.80
17307;DHT22;8771;48.048;7.682;2023-05-10T21:05:20;16.50;71.90
17307;DHT22;8771;48.048;7.682;2023-05-10T21:10:22;16.40;71.80
17307;DHT22;8771;48.048;7.682;2023-05-10T21:15:26;16.40;71.90
17307;DHT22;8771;48.048;7.682;2023-05-10T21:20:28;16.40;71.90
17307;DHT22;8771;48.048;7.682;2023-05-10T21:25:30;16.30;72.60
17307;DHT22;8771;48.048;7.682;2023-05-10T21:30:33;16.30;72.10
17307;DHT22;8771;48.048;7.682;2023-05-10T21:35:35;16.20;71.90
17307;DHT22;8771;48.048;7.682;2023-05-10T21:40:42;16.20;71.90
17307;DHT22;8771;48.048;7.682;2023-05-10T21:45:45;16.20;71.90
17307;DHT22;8771;48.048;7.682;2023-05-10T21:50:47;16.10;71.90
17307;DHT22;8771;48.048;7.682;2023-05-10T21:55:49;16.10;72.10
17307;DHT22;8771;48.048;7.682;2023-05-10T22:00:52;16.10;72.10
17307;DHT22;8771;48.048;7.682;2023-05-10T22:05:54;16.00;72.10
17307;DHT22;8771;48.048;7.682;2023-05-10T22:10:56;16.00;72.20
17307;DHT22;8771;48.048;7.682;2023-05-10T22:15:59;16.00;72.20
17307;DHT22;8771;48.048;7.682;2023-05-10T22:21:01;15.90;72.20
17307;DHT22;8771;48.048;7.682;2023-05-10T22:26:03;15.90;72.20
17307;DHT22;8771;48.048;7.682;2023-05-10T22:31:09;15.90;72.20
17307;DHT22;8771;48.048;7.682;2023-05-10T22:36:11;15.90;72.20
17307;DHT22;8771;48.048;7.682;2023-05-10T22:41:14;15.80;72.20
17307;DHT22;8771;48.048;7.682;2023-05-10T22:46:18;15.80;72.20
17307;DHT22;8771;48.048;7.682;2023-05-10T22:51:20;15.80;72.20
17307;DHT22;8771;48.048;7.682;2023-05-10T22:56:22;15.80;72.20
17307;DHT22;8771;48.048;7.682;2023-05-10T23:01:25;15.80;72.20
17307;DHT22;8771;48.048;7.682;2023-05-10T23:06:27;15.80;72.20
17307;DHT22;8771;48.048;7.682;2023-05-10T23:11:29;15.70;72.20
17307;DHT22;8771;48.048;7.682;2023-05-10T23:16:33;15.70;72.20
17307;DHT22;8771;48.048;7.682;2023-05-10T23:21:34;15.70;73.00
17307;DHT22;8771;48.048;7.682;2023-05-10T23:26:36;15.70;72.30
17307;DHT22;8771;48.048;7.682;2023-05-10T23:31:40;15.60;72.30
17307;DHT22;8771;48.048;7.682;2023-05-10T23:36:45;15.60;72.40
17307;DHT22;8771;48.048;7.682;2023-05-10T23:41:47;15.60;72.40
17307;DHT22;8771;48.048;7.682;2023-05-10T23:46:50;15.60;72.40
17307;DHT22;8771;48.048;7.682;2023-05-10T23:51:52;15.50;72.40
17307;DHT22;8771;48.048;7.682;2023-05-10T23:56:54;15.50;73.20
